Time;durP1;ratioP1;P1;durP2;ratioP2;P2;SDS_P1;SDS_P2;PMS_P1;PMS_P2;Temp;Humidity;BMP_temperature;BMP_pressure;BME280_temperature;BME280_humidity;BME280_pressure;Samples;Min_cycle;Max_cycle;Signal;HPM_P1;HPM_P2
2022/07/10 00:01:25;;;;;;;0.00;0.00;;;12.10;99.90;;;;;;5053408;28;20392;-75
2022/07/10 00:03:51;;;;;;;0.00;0.00;;;12.00;99.90;;;;;;5054886;28;20132;-76
2022/07/10 00:06:17;;;;;;;1.55;0.85;;;11.70;99.90;;;;;;5053752;28;20333;-75
2022/07/10 00:08:42;;;;;;;0.00;0.00;;;11.60;99.90;;;;;;5035245;28;20041;-75
2022/07/10 00:11:09;;;;;;;0.13;0.10;;;11.60;99.90;;;;;;5053159;28;20120;-74
2022/07/10 00:13:35;;;;;;;3.63;0.70;;;11.50;99.90;;;;;;5053427;28;20047;-75
2022/07/10 00:16:01;;;;;;;0.00;0.00;;;11.50;99.90;;;;;;5053433;28;20755;-75
2022/07/10 00:18:28;;;;;;;0.00;0.00;;;11.40;99.90;;;;;;5053234;28;20041;-75
2022/07/10 00:20:53;;;;;;;0.00;0.00;;;11.30;99.90;;;;;;5053328;28;20055;-75
2022/07/10 00:23:19;;;;;;;0.00;0.00;;;11.20;99.90;;;;;;5053102;28;20037;-75
2022/07/10 00:25:45;;;;;;;0.00;0.00;;;11.20;99.90;;;;;;5053970;28;20049;-76
2022/07/10 00:28:11;;;;;;;0.00;0.00;;;11.10;99.90;;;;;;5053165;28;20041;-75
2022/07/10 00:30:37;;;;;;;0.00;0.00;;;11.10;99.90;;;;;;5053150;28;20045;-75
2022/07/10 00:33:03;;;;;;;4.90;1.33;;;11.00;99.90;;;;;;5053067;28;20411;-75
2022/07/10 00:35:29;;;;;;;0.05;0.05;;;10.90;99.90;;;;;;5053419;28;20055;-75
2022/07/10 00:37:55;;;;;;;0.10;0.10;;;10.80;99.90;;;;;;5053005;28;20049;-74
2022/07/10 00:40:21;;;;;;;0.10;0.10;;;10.70;99.90;;;;;;5053098;28;20044;-74
2022/07/10 00:42:46;;;;;;;0.00;0.00;;;10.70;99.90;;;;;;5053047;28;20506;-74
2022/07/10 00:45:12;;;;;;;0.00;0.00;;;10.60;99.90;;;;;;5052993;28;20453;-74
2022/07/10 00:47:38;;;;;;;0.00;0.00;;;10.50;99.90;;;;;;5052675;28;20183;-75
2022/07/10 00:50:06;;;;;;;0.00;0.00;;;10.60;99.90;;;;;;5052580;28;20052;-75
2022/07/10 00:52:35;;;;;;;0.22;0.20;;;10.50;99.90;;;;;;5052938;28;20047;-75
2022/07/10 00:55:01;;;;;;;0.82;0.22;;;10.50;99.90;;;;;;5034962;28;20522;-75
2022/07/10 00:57:27;;;;;;;1.20;0.63;;;10.60;99.90;;;;;;5052521;28;20045;-75
2022/07/10 00:59:53;;;;;;;0.00;0.00;;;10.80;99.90;;;;;;5052200;28;20083;-75
2022/07/10 01:02:19;;;;;;;0.00;0.00;;;11.00;99.90;;;;;;5052365;28;20041;-75
2022/07/10 01:04:45;;;;;;;0.10;0.10;;;11.20;99.90;;;;;;5052328;28;20530;-75
2022/07/10 01:07:11;;;;;;;0.00;0.00;;;11.40;99.90;;;;;;5052413;28;20123;-75
2022/07/10 01:09:37;;;;;;;0.00;0.00;;;11.50;99.90;;;;;;5034118;28;20053;-75
2022/07/10 01:12:04;;;;;;;0.00;0.00;;;11.50;99.90;;;;;;5052275;28;20116;-75
2022/07/10 01:14:30;;;;;;;0.63;0.63;;;11.40;99.90;;;;;;5052348;28;20447;-74
2022/07/10 01:16:58;;;;;;;0.05;0.05;;;11.40;99.90;;;;;;5052054;28;20506;-75
2022/07/10 01:19:23;;;;;;;0.00;0.00;;;11.20;99.90;;;;;;5051720;28;20499;-75
2022/07/10 01:21:49;;;;;;;0.00;0.00;;;11.10;99.90;;;;;;5051839;28;20075;-74
2022/07/10 01:24:15;;;;;;;0.00;0.00;;;11.00;99.90;;;;;;5052167;28;20037;-75
2022/07/10 01:26:42;;;;;;;0.00;0.00;;;10.90;99.90;;;;;;5051694;28;20045;-74
2022/07/10 01:29:09;;;;;;;0.00;0.00;;;10.90;99.90;;;;;;5051622;28;20041;-75
2022/07/10 01:31:35;;;;;;;0.00;0.00;;;10.80;99.90;;;;;;5051491;28;20041;-74
2022/07/10 01:34:04;;;;;;;0.25;0.25;;;10.70;99.90;;;;;;5051890;28;20044;-75
2022/07/10 01:36:30;;;;;;;0.10;0.08;;;10.70;99.90;;;;;;5052264;28;20087;-74
2022/07/10 01:38:57;;;;;;;0.00;0.00;;;10.70;99.90;;;;;;5052548;28;20072;-74
2022/07/10 01:41:24;;;;;;;0.00;0.00;;;10.90;99.90;;;;;;5054124;28;20060;-75
2022/07/10 01:43:50;;;;;;;0.00;0.00;;;10.90;99.90;;;;;;5059248;28;20033;-76
2022/07/10 01:46:16;;;;;;;0.00;0.00;;;10.90;99.90;;;;;;5059160;28;20033;-75
2022/07/10 01:48:42;;;;;;;0.20;0.20;;;10.90;99.90;;;;;;5058861;28;20371;-74
2022/07/10 01:51:10;;;;;;;0.00;0.00;;;10.90;99.90;;;;;;5052032;28;20040;-75
2022/07/10 01:53:35;;;;;;;0.98;0.80;;;10.90;99.90;;;;;;5051090;28;20480;-75
2022/07/10 01:56:05;;;;;;;0.30;0.30;;;10.90;99.90;;;;;;5051464;28;20045;-75
2022/07/10 01:58:31;;;;;;;0.00;0.00;;;10.90;99.90;;;;;;5052521;28;20037;-74
2022/07/10 02:00:57;;;;;;;0.00;0.00;;;11.00;99.90;;;;;;5051592;28;20553;-74
2022/07/10 02:06:07;;;;;;;0.22;0.17;;;11.20;99.90;;;;;;5051753;28;20098;-75
2022/07/10 02:08:33;;;;;;;0.00;0.00;;;11.20;99.90;;;;;;5051368;28;20458;-74
2022/07/10 02:10:58;;;;;;;0.00;0.00;;;11.30;99.90;;;;;;5051156;28;20511;-75
2022/07/10 02:13:27;;;;;;;0.10;0.10;;;11.20;99.90;;;;;;5051630;28;20048;-75
2022/07/10 02:15:53;;;;;;;13.80;0.28;;;11.20;99.90;;;;;;5051377;28;20044;-75
2022/07/10 02:18:19;;;;;;;0.00;0.00;;;11.10;99.90;;;;;;5050939;28;20049;-75
2022/07/10 02:20:45;;;;;;;0.13;0.13;;;11.10;99.90;;;;;;5050961;28;20102;-74
2022/07/10 02:23:10;;;;;;;0.00;0.00;;;11.00;99.90;;;;;;5051193;28;20068;-75
2022/07/10 02:25:36;;;;;;;0.00;0.00;;;10.90;99.90;;;;;;5051052;28;20048;-75
2022/07/10 02:28:02;;;;;;;0.20;0.20;;;10.90;99.90;;;;;;5051533;28;20496;-75
2022/07/10 02:30:27;;;;;;;0.00;0.00;;;10.90;99.90;;;;;;5050383;28;20072;-75
2022/07/10 02:32:53;;;;;;;0.00;0.00;;;10.80;99.90;;;;;;5050811;28;20075;-75
2022/07/10 02:35:18;;;;;;;1.20;0.32;;;10.80;99.90;;;;;;5051018;28;20036;-74
2022/07/10 02:37:44;;;;;;;3.63;0.90;;;10.70;99.90;;;;;;5050782;28;20045;-74
2022/07/10 02:40:10;;;;;;;0.63;0.10;;;10.70;99.90;;;;;;5050361;28;20041;-75
2022/07/10 02:42:36;;;;;;;0.05;0.05;;;10.60;99.90;;;;;;5050660;28;20049;-75
2022/07/10 02:45:02;;;;;;;0.00;0.00;;;10.60;99.90;;;;;;5051122;28;20048;-75
2022/07/10 02:47:28;;;;;;;0.00;0.00;;;10.50;99.90;;;;;;5050704;28;20618;-74
2022/07/10 02:49:53;;;;;;;0.00;0.00;;;10.50;99.90;;;;;;5050664;28;20090;-75
2022/07/10 02:52:19;;;;;;;0.00;0.00;;;10.70;99.90;;;;;;5050719;28;20056;-74
2022/07/10 02:54:44;;;;;;;0.00;0.00;;;10.60;99.90;;;;;;5032780;28;20044;-74
2022/07/10 02:57:10;;;;;;;0.00;0.00;;;10.60;99.90;;;;;;5051012;28;20037;-75
2022/07/10 02:59:35;;;;;;;0.00;0.00;;;10.70;99.90;;;;;;5050382;28;20523;-74
2022/07/10 03:02:01;;;;;;;0.00;0.00;;;10.70;99.90;;;;;;5050634;28;20389;-74
2022/07/10 03:04:27;;;;;;;5.53;0.47;;;10.70;99.90;;;;;;5050416;28;20131;-74
2022/07/10 03:06:53;;;;;;;0.00;0.00;;;10.80;99.90;;;;;;5050607;28;20049;-74
2022/07/10 03:09:19;;;;;;;0.00;0.00;;;10.90;99.90;;;;;;5050463;28;20546;-74
2022/07/10 03:11:44;;;;;;;0.00;0.00;;;11.00;99.90;;;;;;5050453;28;20041;-74
2022/07/10 03:14:10;;;;;;;0.00;0.00;;;11.10;99.90;;;;;;5050852;28;20052;-74
2022/07/10 03:16:36;;;;;;;0.00;0.00;;;11.00;99.90;;;;;;5050729;28;20073;-74
2022/07/10 03:19:01;;;;;;;0.08;0.08;;;11.00;99.90;;;;;;5050420;28;20498;-74
2022/07/10 03:21:27;;;;;;;0.00;0.00;;;11.10;99.90;;;;;;5050132;28;20076;-75
2022/07/10 03:23:53;;;;;;;0.00;0.00;;;11.10;99.90;;;;;;5050429;28;20104;-75
2022/07/10 03:26:18;;;;;;;0.10;0.10;;;11.10;99.90;;;;;;5050428;28;20041;-74
2022/07/10 03:28:44;;;;;;;0.00;0.00;;;11.00;99.90;;;;;;5050507;28;20057;-74
2022/07/10 03:31:09;;;;;;;0.85;0.45;;;11.00;99.90;;;;;;5050196;28;20076;-74
2022/07/10 03:33:35;;;;;;;0.00;0.00;;;11.10;99.90;;;;;;5050198;28;20045;-74
2022/07/10 03:36:04;;;;;;;0.00;0.00;;;11.10;99.90;;;;;;5050490;28;20081;-74
2022/07/10 03:38:30;;;;;;;0.08;0.08;;;11.20;99.90;;;;;;5050078;28;20128;-74
2022/07/10 03:40:56;;;;;;;0.00;0.00;;;11.30;99.90;;;;;;5050509;28;20111;-74
2022/07/10 03:43:21;;;;;;;0.00;0.00;;;11.40;99.90;;;;;;5054369;28;20033;-75
2022/07/10 03:45:47;;;;;;;0.00;0.00;;;11.60;99.90;;;;;;5054302;28;20040;-75
2022/07/10 03:48:12;;;;;;;0.00;0.00;;;11.70;99.90;;;;;;5054132;28;20053;-76
2022/07/10 03:50:38;;;;;;;0.13;0.10;;;11.80;99.90;;;;;;5053752;28;20076;-76
2022/07/10 03:53:04;;;;;;;0.00;0.00;;;11.90;99.90;;;;;;5053750;28;20040;-75
2022/07/10 03:55:30;;;;;;;0.00;0.00;;;12.00;99.90;;;;;;5053837;28;20449;-75
2022/07/10 03:57:56;;;;;;;0.00;0.00;;;12.10;99.90;;;;;;5054140;28;20041;-75
2022/07/10 04:00:24;;;;;;;0.00;0.00;;;12.10;99.90;;;;;;5053652;28;20087;-75
2022/07/10 04:02:58;;;;;;;0.15;0.15;;;12.20;99.90;;;;;;5053633;28;20116;-75
2022/07/10 04:05:24;;;;;;;0.00;0.00;;;12.20;99.90;;;;;;5053812;28;20498;-75
2022/07/10 04:07:50;;;;;;;0.22;0.10;;;12.30;99.90;;;;;;5053945;28;20037;-75
2022/07/10 04:10:16;;;;;;;0.55;0.40;;;12.40;99.90;;;;;;5053795;28;20388;-75
2022/07/10 04:12:42;;;;;;;0.00;0.00;;;12.40;99.90;;;;;;5053980;28;20533;-75
2022/07/10 04:15:08;;;;;;;0.00;0.00;;;12.40;99.90;;;;;;5053832;28;20045;-75
2022/07/10 04:17:33;;;;;;;0.00;0.00;;;12.40;99.90;;;;;;5053377;28;20059;-75
2022/07/10 04:20:00;;;;;;;0.00;0.00;;;12.40;99.90;;;;;;5053147;28;20124;-75
2022/07/10 04:22:29;;;;;;;0.00;0.00;;;12.50;99.90;;;;;;5053599;28;20048;-75
2022/07/10 04:24:55;;;;;;;0.00;0.00;;;12.50;99.90;;;;;;5053476;28;20037;-75
2022/07/10 04:27:20;;;;;;;6.05;1.55;;;12.50;99.90;;;;;;5053676;28;20041;-75
2022/07/10 04:29:46;;;;;;;0.00;0.00;;;12.60;99.90;;;;;;5053028;28;20472;-75
2022/07/10 04:32:12;;;;;;;0.05;0.05;;;12.60;99.90;;;;;;5035414;28;20478;-75
2022/07/10 04:34:38;;;;;;;0.00;0.00;;;12.60;99.90;;;;;;5053053;28;20389;-75
2022/07/10 04:37:04;;;;;;;0.00;0.00;;;12.70;99.90;;;;;;5053269;28;20051;-76
2022/07/10 04:39:30;;;;;;;0.00;0.00;;;12.70;99.90;;;;;;5052944;28;20037;-75
2022/07/10 04:41:55;;;;;;;0.00;0.00;;;12.80;99.90;;;;;;5053116;28;20087;-75
2022/07/10 04:44:21;;;;;;;0.60;0.30;;;12.80;99.90;;;;;;5053213;28;20064;-75
2022/07/10 04:46:47;;;;;;;0.00;0.00;;;12.90;99.90;;;;;;5053048;28;20399;-75
2022/07/10 04:49:13;;;;;;;0.00;0.00;;;13.00;99.90;;;;;;5052877;28;20048;-75
2022/07/10 04:51:39;;;;;;;0.10;0.10;;;13.10;99.90;;;;;;5053072;28;20041;-75
2022/07/10 04:54:04;;;;;;;0.00;0.00;;;13.20;99.90;;;;;;5052336;28;20048;-75
2022/07/10 04:56:30;;;;;;;1.55;1.08;;;13.40;99.90;;;;;;5052973;28;20048;-75
2022/07/10 04:58:55;;;;;;;0.00;0.00;;;13.50;99.90;;;;;;5052097;28;20041;-75
2022/07/10 05:01:21;;;;;;;0.30;0.25;;;13.60;99.90;;;;;;5052509;28;20060;-75
2022/07/10 05:03:47;;;;;;;0.00;0.00;;;13.70;99.90;;;;;;5052615;28;20065;-75
2022/07/10 05:06:13;;;;;;;0.00;0.00;;;13.80;99.90;;;;;;5052928;28;20174;-76
2022/07/10 05:08:39;;;;;;;0.10;0.10;;;14.00;99.90;;;;;;5052528;28;20127;-75
2022/07/10 05:11:05;;;;;;;0.38;0.38;;;14.10;99.90;;;;;;5052523;28;20036;-75
2022/07/10 05:13:31;;;;;;;2.47;1.13;;;14.20;99.90;;;;;;5052665;28;20445;-75
2022/07/10 05:15:56;;;;;;;11.57;0.80;;;14.40;99.90;;;;;;5052717;28;20041;-75
2022/07/10 05:18:22;;;;;;;1.15;0.47;;;14.50;99.90;;;;;;5052055;28;20072;-74
2022/07/10 05:20:49;;;;;;;0.00;0.00;;;14.60;99.90;;;;;;5052143;28;20064;-75
2022/07/10 05:23:15;;;;;;;0.00;0.00;;;14.70;99.90;;;;;;5035954;28;20129;-75
2022/07/10 05:25:41;;;;;;;0.00;0.00;;;14.80;99.90;;;;;;5052578;28;20037;-75
2022/07/10 05:28:07;;;;;;;0.00;0.00;;;14.90;99.90;;;;;;5052338;28;20087;-75
2022/07/10 05:30:33;;;;;;;0.10;0.10;;;15.00;99.90;;;;;;5051995;28;20041;-75
2022/07/10 05:32:59;;;;;;;0.00;0.00;;;15.10;99.90;;;;;;5051943;28;20450;-75
2022/07/10 05:35:26;;;;;;;0.00;0.00;;;15.20;99.90;;;;;;5052357;28;20076;-75
2022/07/10 05:37:52;;;;;;;0.10;0.10;;;15.20;99.90;;;;;;5052367;28;20091;-75
2022/07/10 05:40:18;;;;;;;2.00;0.47;;;15.30;99.90;;;;;;5051704;28;20437;-76
2022/07/10 05:42:44;;;;;;;0.55;0.43;;;15.30;99.90;;;;;;5051906;28;20037;-75
2022/07/10 05:45:11;;;;;;;0.00;0.00;;;15.40;99.90;;;;;;5051885;28;20056;-75
2022/07/10 05:47:36;;;;;;;0.00;0.00;;;15.50;99.90;;;;;;5051691;28;20045;-75
2022/07/10 05:50:02;;;;;;;0.00;0.00;;;15.60;99.90;;;;;;5051620;28;20049;-76
2022/07/10 05:52:28;;;;;;;0.00;0.00;;;15.70;99.90;;;;;;5051768;28;20090;-75
2022/07/10 05:54:55;;;;;;;2.53;0.25;;;15.90;99.90;;;;;;5051714;28;20048;-75
2022/07/10 05:57:20;;;;;;;1.88;0.52;;;15.90;99.90;;;;;;5051662;28;20135;-73
2022/07/10 05:59:46;;;;;;;0.65;0.47;;;16.00;99.90;;;;;;5050753;28;20033;-74
2022/07/10 06:02:12;;;;;;;0.08;0.08;;;16.00;99.90;;;;;;5051217;28;20041;-74
2022/07/10 06:04:37;;;;;;;2.60;0.85;;;16.10;99.90;;;;;;5050631;28;20041;-73
2022/07/10 06:07:03;;;;;;;0.13;0.08;;;16.10;99.90;;;;;;5051138;28;20041;-73
2022/07/10 06:09:28;;;;;;;0.20;0.20;;;16.00;99.90;;;;;;5051254;28;20503;-73
2022/07/10 06:11:54;;;;;;;0.20;0.20;;;16.10;99.90;;;;;;5051473;28;20553;-74
2022/07/10 06:14:19;;;;;;;4.13;1.40;;;16.40;99.90;;;;;;5051390;28;20033;-76
2022/07/10 06:16:45;;;;;;;0.00;0.00;;;15.90;99.90;;;;;;5051181;28;20076;-73
2022/07/10 06:19:11;;;;;;;0.30;0.30;;;15.90;99.90;;;;;;5050857;28;20390;-73
2022/07/10 06:21:36;;;;;;;9.32;0.47;;;16.80;99.90;;;;;;5051421;28;20087;-73
2022/07/10 06:24:02;;;;;;;6.07;2.05;;;15.70;99.90;;;;;;5050913;28;20047;-76
2022/07/10 06:26:27;;;;;;;0.47;0.43;;;15.60;99.90;;;;;;5051052;28;20442;-75
2022/07/10 06:28:53;;;;;;;0.10;0.10;;;15.70;99.90;;;;;;5050851;28;20120;-75
2022/07/10 06:31:18;;;;;;;0.10;0.10;;;15.60;99.90;;;;;;5050722;28;20045;-75
2022/07/10 06:33:44;;;;;;;2.42;0.65;;;15.40;99.90;;;;;;5050872;28;20064;-75
2022/07/10 06:36:12;;;;;;;0.35;0.25;;;15.30;99.90;;;;;;5050395;28;20033;-75
2022/07/10 06:38:37;;;;;;;12.57;0.63;;;15.10;99.90;;;;;;5050435;28;20121;-75
2022/07/10 06:41:03;;;;;;;0.03;0.03;;;15.00;99.90;;;;;;5050501;28;20457;-76
2022/07/10 06:43:29;;;;;;;0.10;0.10;;;15.00;99.90;;;;;;5050890;28;20037;-75
2022/07/10 06:45:55;;;;;;;0.20;0.20;;;15.20;99.90;;;;;;5050982;28;20049;-75
2022/07/10 06:48:21;;;;;;;0.00;0.00;;;15.30;99.90;;;;;;5050527;28;20403;-75
2022/07/10 06:50:47;;;;;;;0.00;0.00;;;15.50;99.90;;;;;;5050566;28;20051;-75
2022/07/10 06:53:13;;;;;;;2.38;0.75;;;15.70;99.90;;;;;;5050699;28;20033;-76
2022/07/10 06:55:39;;;;;;;1.55;0.98;;;15.70;99.90;;;;;;5050783;28;20045;-76
2022/07/10 06:58:05;;;;;;;0.10;0.10;;;15.50;99.90;;;;;;5050619;28;21088;-75
2022/07/10 07:00:30;;;;;;;0.03;0.03;;;15.40;99.90;;;;;;5050307;28;20102;-76
2022/07/10 07:02:56;;;;;;;0.13;0.10;;;15.10;99.90;;;;;;5050641;28;20064;-76
2022/07/10 07:05:21;;;;;;;0.45;0.45;;;14.90;99.90;;;;;;5050939;28;20049;-75
2022/07/10 07:07:47;;;;;;;0.60;0.60;;;14.80;99.90;;;;;;5050508;28;20101;-76
2022/07/10 07:10:13;;;;;;;0.00;0.00;;;14.70;99.90;;;;;;5050162;28;20052;-75
2022/07/10 07:12:38;;;;;;;0.17;0.13;;;14.50;99.90;;;;;;5050237;28;20123;-73
2022/07/10 07:15:06;;;;;;;0.20;0.20;;;14.70;99.90;;;;;;5050648;28;20040;-75
2022/07/10 07:17:35;;;;;;;1.23;0.35;;;14.60;99.90;;;;;;5053273;28;20052;-75
2022/07/10 07:25:46;;;;;;;0.75;0.75;;;15.20;99.90;;;;;;4954182;29;20517;-74
2022/07/10 07:28:15;;;;;;;0.13;0.13;;;15.30;99.90;;;;;;5033375;28;20053;-75
2022/07/10 07:30:41;;;;;;;0.20;0.20;;;15.50;99.90;;;;;;5054140;28;20498;-75
2022/07/10 07:33:07;;;;;;;0.05;0.05;;;16.30;99.90;;;;;;5054282;28;20041;-74
2022/07/10 07:35:33;;;;;;;0.10;0.10;;;15.60;99.90;;;;;;5054106;28;20086;-75
2022/07/10 07:37:58;;;;;;;0.73;0.47;;;15.80;99.90;;;;;;5053957;28;20044;-75
2022/07/10 07:40:24;;;;;;;0.88;0.45;;;15.70;99.90;;;;;;5054075;28;20036;-75
2022/07/10 07:42:51;;;;;;;0.65;0.47;;;15.80;99.90;;;;;;5054106;28;20499;-73
2022/07/10 07:45:17;;;;;;;0.00;0.00;;;15.70;99.90;;;;;;5054346;28;20041;-74
2022/07/10 07:48:03;;;;;;;0.10;0.10;;;15.50;99.90;;;;;;5054174;28;20044;-74
2022/07/10 07:50:32;;;;;;;0.00;0.00;;;15.30;99.90;;;;;;5053351;28;20049;-75
2022/07/10 07:52:58;;;;;;;1.98;0.85;;;15.00;99.90;;;;;;5053607;28;20072;-74
2022/07/10 07:55:24;;;;;;;0.65;0.30;;;15.00;99.90;;;;;;5053912;28;20080;-74
2022/07/10 07:57:54;;;;;;;0.03;0.03;;;15.10;99.90;;;;;;5053889;28;20075;-74
2022/07/10 08:00:22;;;;;;;0.00;0.00;;;15.20;99.90;;;;;;5053324;28;20053;-74
2022/07/10 08:02:48;;;;;;;0.00;0.00;;;15.30;99.90;;;;;;5053392;28;20048;-74
2022/07/10 08:05:16;;;;;;;0.00;0.00;;;15.40;99.90;;;;;;5053441;28;20128;-74
2022/07/10 08:07:51;;;;;;;0.20;0.17;;;15.50;99.90;;;;;;5053636;28;20475;-74
2022/07/10 08:10:18;;;;;;;0.33;0.17;;;15.60;99.90;;;;;;5053439;28;20392;-75
2022/07/10 08:12:46;;;;;;;0.00;0.00;;;15.90;99.90;;;;;;5035592;28;20049;-75
2022/07/10 08:15:12;;;;;;;0.20;0.17;;;16.10;99.90;;;;;;5053441;28;20047;-74
2022/07/10 08:17:38;;;;;;;0.80;0.52;;;16.10;99.90;;;;;;5050464;28;20045;-74
2022/07/10 08:20:05;;;;;;;1.50;0.80;;;16.30;99.90;;;;;;5050222;28;20095;-74
2022/07/10 08:22:32;;;;;;;0.00;0.00;;;16.30;99.90;;;;;;5050399;28;20099;-75
2022/07/10 08:24:58;;;;;;;0.05;0.05;;;16.30;99.90;;;;;;5050461;28;20511;-75
2022/07/10 08:27:24;;;;;;;0.77;0.60;;;16.00;99.90;;;;;;5050546;28;20049;-74
2022/07/10 08:29:50;;;;;;;0.00;0.00;;;16.10;99.90;;;;;;5049624;28;20124;-75
2022/07/10 08:32:15;;;;;;;0.55;0.47;;;16.30;99.90;;;;;;5049664;28;20044;-75
2022/07/10 08:34:41;;;;;;;0.00;0.00;;;16.30;99.90;;;;;;5049882;28;20132;-74
2022/07/10 08:37:06;;;;;;;0.10;0.10;;;16.50;99.90;;;;;;5049698;28;20041;-75
2022/07/10 08:39:33;;;;;;;1.35;0.90;;;16.40;99.90;;;;;;5049730;28;20041;-75
2022/07/10 08:41:59;;;;;;;0.00;0.00;;;16.30;99.90;;;;;;5046771;28;20083;-76
2022/07/10 08:44:25;;;;;;;0.00;0.00;;;16.30;99.90;;;;;;5049781;28;20032;-76
2022/07/10 08:46:51;;;;;;;0.00;0.00;;;16.20;99.90;;;;;;5049664;28;20041;-76
2022/07/10 08:49:17;;;;;;;0.30;0.30;;;16.60;99.90;;;;;;5049659;28;20047;-76
2022/07/10 08:51:59;;;;;;;0.10;0.10;;;16.70;99.90;;;;;;5044116;28;20060;-75
2022/07/10 08:54:28;;;;;;;0.00;0.00;;;17.10;99.90;;;;;;5050345;28;20119;-75
2022/07/10 08:56:56;;;;;;;0.00;0.00;;;17.40;99.90;;;;;;5049671;28;20499;-76
2022/07/10 08:59:22;;;;;;;0.20;0.20;;;17.80;99.90;;;;;;5049665;28;20128;-76
2022/07/10 09:01:49;;;;;;;0.13;0.13;;;17.70;99.90;;;;;;5044620;28;20132;-75
2022/07/10 09:04:20;;;;;;;0.00;0.00;;;17.70;99.90;;;;;;5044520;28;20040;-75
2022/07/10 09:06:45;;;;;;;0.05;0.05;;;17.70;99.90;;;;;;5049401;28;20041;-75
2022/07/10 09:09:11;;;;;;;0.30;0.20;;;17.50;99.90;;;;;;5049476;28;20522;-75
2022/07/10 09:11:44;;;;;;;0.00;0.00;;;17.50;99.90;;;;;;5049535;28;20044;-75
2022/07/10 09:14:13;;;;;;;0.22;0.05;;;17.60;99.90;;;;;;5049481;28;20040;-76
2022/07/10 09:16:41;;;;;;;0.00;0.00;;;17.30;99.90;;;;;;5049488;28;20099;-75
2022/07/10 09:19:22;;;;;;;0.13;0.13;;;17.00;99.90;;;;;;5049013;28;20491;-75
2022/07/10 09:21:51;;;;;;;0.00;0.00;;;17.20;99.90;;;;;;5031275;28;20053;-75
2022/07/10 09:24:19;;;;;;;0.10;0.10;;;17.40;99.90;;;;;;5049337;28;20049;-75
2022/07/10 09:27:00;;;;;;;0.00;0.00;;;17.60;99.90;;;;;;5049044;28;20134;-75
2022/07/10 09:29:26;;;;;;;0.00;0.00;;;18.00;99.90;;;;;;5049328;28;20099;-75
2022/07/10 09:31:53;;;;;;;0.00;0.00;;;18.10;99.90;;;;;;5049159;28;20048;-75
2022/07/10 09:34:37;;;;;;;0.00;0.00;;;18.10;99.90;;;;;;5048935;28;20045;-75
2022/07/10 09:37:26;;;;;;;0.00;0.00;;;17.80;99.90;;;;;;5049127;28;20052;-75
2022/07/10 09:40:06;;;;;;;0.00;0.00;;;17.60;99.90;;;;;;5049211;28;20123;-75
2022/07/10 09:42:47;;;;;;;0.00;0.00;;;17.60;99.90;;;;;;5048612;28;20105;-75
2022/07/10 09:45:12;;;;;;;0.00;0.00;;;17.50;99.90;;;;;;5048086;28;20053;-75
2022/07/10 09:47:39;;;;;;;2.60;0.47;;;17.50;99.90;;;;;;5048694;28;20311;-75
2022/07/10 09:50:25;;;;;;;0.70;0.63;;;17.40;99.90;;;;;;5048670;28;20059;-75
2022/07/10 09:52:53;;;;;;;0.00;0.00;;;17.20;99.90;;;;;;5028979;28;20812;-74
2022/07/10 09:55:24;;;;;;;0.00;0.00;;;17.20;99.90;;;;;;5010950;28;20045;-75
2022/07/10 09:58:04;;;;;;;0.38;0.30;;;16.80;99.90;;;;;;5028908;28;20110;-76
2022/07/10 10:00:32;;;;;;;0.20;0.20;;;16.20;99.90;;;;;;5012963;28;20103;-75
2022/07/10 10:03:03;;;;;;;0.10;0.08;;;15.70;99.90;;;;;;5048730;28;20053;-75
2022/07/10 10:05:31;;;;;;;0.00;0.00;;;15.80;99.90;;;;;;5048449;28;20317;-75
2022/07/10 10:08:01;;;;;;;0.00;0.00;;;15.80;99.90;;;;;;5048383;28;20048;-75
2022/07/10 10:10:27;;;;;;;0.00;0.00;;;15.90;99.90;;;;;;5048850;28;20086;-75
2022/07/10 10:12:58;;;;;;;0.00;0.00;;;15.80;99.90;;;;;;5031862;28;20080;-74
2022/07/10 10:15:25;;;;;;;0.17;0.15;;;16.30;99.90;;;;;;5032452;28;20463;-74
2022/07/10 10:17:52;;;;;;;0.00;0.00;;;15.80;99.90;;;;;;5033361;28;20045;-73
2022/07/10 10:20:39;;;;;;;0.10;0.10;;;16.00;99.90;;;;;;5048983;28;20115;-74
2022/07/10 10:23:07;;;;;;;0.05;0.05;;;15.90;99.90;;;;;;5029601;28;20056;-74
2022/07/10 10:25:34;;;;;;;0.00;0.00;;;16.00;99.90;;;;;;5029789;28;20514;-74
2022/07/10 10:28:04;;;;;;;0.00;0.00;;;15.90;99.90;;;;;;5032600;28;20037;-74
2022/07/10 10:30:30;;;;;;;0.10;0.10;;;16.00;99.90;;;;;;5049270;28;20056;-74
2022/07/10 10:32:55;;;;;;;0.05;0.05;;;15.80;99.90;;;;;;5048071;28;20055;-74
2022/07/10 10:35:46;;;;;;;0.10;0.00;;;16.00;99.90;;;;;;5048286;28;20037;-74
2022/07/10 10:38:13;;;;;;;0.08;0.08;;;16.10;99.90;;;;;;5047778;28;20037;-73
2022/07/10 10:40:38;;;;;;;0.70;0.20;;;16.50;99.90;;;;;;5048467;28;20087;-73
2022/07/10 10:43:22;;;;;;;0.00;0.00;;;16.80;99.90;;;;;;5048770;28;20076;-74
2022/07/10 10:45:49;;;;;;;0.00;0.00;;;17.10;99.90;;;;;;5049063;28;20510;-73
2022/07/10 10:48:21;;;;;;;1.75;0.52;;;17.10;99.90;;;;;;5048963;28;20033;-74
2022/07/10 10:50:48;;;;;;;0.20;0.10;;;16.70;99.90;;;;;;5048737;28;20040;-73
2022/07/10 10:53:27;;;;;;;0.17;0.17;;;16.70;99.90;;;;;;5048633;28;20041;-75
2022/07/10 10:56:06;;;;;;;0.30;0.30;;;16.20;99.90;;;;;;5049625;28;20513;-74
2022/07/10 10:58:43;;;;;;;0.22;0.22;;;16.00;99.90;;;;;;5048849;28;20056;-72
2022/07/10 11:01:21;;;;;;;0.10;0.10;;;16.10;99.90;;;;;;5048182;28;20503;-74
2022/07/10 11:04:19;;;;;;;0.15;0.15;;;16.20;99.90;;;;;;5048185;28;20045;-74
2022/07/10 11:06:46;;;;;;;1.05;0.57;;;16.60;99.90;;;;;;5016183;28;20052;-73
2022/07/10 11:09:32;;;;;;;0.35;0.20;;;16.90;99.90;;;;;;5040527;28;20056;-74
2022/07/10 11:11:58;;;;;;;0.00;0.00;;;17.10;99.90;;;;;;5042021;28;20037;-74
2022/07/10 11:14:28;;;;;;;0.32;0.22;;;17.00;99.90;;;;;;5052162;28;20588;-75
2022/07/10 11:16:54;;;;;;;0.10;0.10;;;17.10;99.90;;;;;;5035025;28;20060;-74
2022/07/10 11:19:31;;;;;;;0.30;0.22;;;17.00;99.90;;;;;;5052426;28;20127;-74
2022/07/10 11:22:09;;;;;;;;;;;16.90;99.90;;;;;;5053514;28;20045;-74
2022/07/10 11:24:45;;;;;;;0.10;0.10;;;16.40;99.90;;;;;;5052245;28;20350;-74
2022/07/10 11:27:49;;;;;;;0.47;0.32;;;16.30;99.90;;;;;;5052531;28;20056;-74
2022/07/10 11:30:15;;;;;;;0.95;0.28;;;16.40;99.90;;;;;;5052388;28;20045;-75
2022/07/10 11:32:40;;;;;;;1.55;0.70;;;16.90;99.90;;;;;;5052289;28;20049;-74
2022/07/10 11:35:12;;;;;;;0.00;0.00;;;17.50;99.90;;;;;;5052544;28;20033;-75
2022/07/10 11:37:52;;;;;;;0.47;0.35;;;18.00;99.90;;;;;;5052306;28;20089;-75
2022/07/10 11:40:19;;;;;;;0.05;0.05;;;17.90;99.90;;;;;;5052438;28;20092;-75
2022/07/10 11:42:52;;;;;;;0.10;0.10;;;18.20;99.90;;;;;;5052039;28;20479;-75
2022/07/10 11:45:30;;;;;;;0.63;0.43;;;18.10;99.90;;;;;;5052589;28;20120;-75
2022/07/10 11:47:56;;;;;;;2.10;0.65;;;18.00;99.90;;;;;;5052127;28;20060;-74
2022/07/10 11:50:22;;;;;;;1.52;1.15;;;17.70;99.90;;;;;;5052551;28;20432;-75
2022/07/10 11:52:49;;;;;;;2.10;0.57;;;17.20;99.90;;;;;;5054100;28;20399;-75
2022/07/10 11:55:20;;;;;;;0.32;0.17;;;16.60;99.90;;;;;;5054901;28;20458;-74
2022/07/10 11:57:48;;;;;;;0.28;0.25;;;16.40;99.90;;;;;;5052983;28;20127;-74
2022/07/10 12:00:40;;;;;;;0.75;0.60;;;16.60;99.90;;;;;;5051886;28;20061;-74
2022/07/10 12:03:21;;;;;;;0.22;0.17;;;16.80;99.90;;;;;;5048970;28;20056;-74
2022/07/10 12:05:50;;;;;;;0.10;0.10;;;17.00;99.90;;;;;;5055853;28;20037;-73
2022/07/10 12:08:16;;;;;;;2.08;0.80;;;17.30;99.90;;;;;;5055342;28;20575;-74
2022/07/10 12:10:42;;;;;;;0.52;0.30;;;17.50;99.90;;;;;;5055518;28;20128;-75
2022/07/10 12:13:13;;;;;;;0.00;0.00;;;17.20;99.90;;;;;;5055561;28;20087;-74
2022/07/10 12:15:39;;;;;;;0.00;0.00;;;17.00;99.90;;;;;;5055614;28;20083;-75
2022/07/10 12:18:07;;;;;;;0.20;0.20;;;17.10;99.90;;;;;;5055042;28;20488;-74
2022/07/10 12:20:32;;;;;;;0.10;0.10;;;17.20;99.90;;;;;;5055070;28;20041;-75
2022/07/10 12:22:58;;;;;;;0.65;0.43;;;17.20;99.90;;;;;;5054989;28;20041;-74
2022/07/10 12:25:24;;;;;;;0.08;0.08;;;17.20;99.90;;;;;;5055189;28;20118;-74
2022/07/10 12:27:56;;;;;;;0.10;0.10;;;17.00;99.90;;;;;;5055465;28;20063;-74
2022/07/10 12:30:23;;;;;;;0.10;0.10;;;16.80;99.90;;;;;;5055336;28;20051;-74
2022/07/10 12:32:48;;;;;;;0.35;0.25;;;16.70;99.90;;;;;;5055142;28;20064;-75
2022/07/10 12:35:19;;;;;;;0.10;0.10;;;16.60;99.90;;;;;;5055257;28;20045;-75
2022/07/10 12:37:49;;;;;;;0.08;0.05;;;16.40;99.90;;;;;;5054723;28;20467;-74
2022/07/10 12:40:31;;;;;;;0.00;0.00;;;16.60;99.90;;;;;;5054412;28;20098;-74
2022/07/10 12:43:06;;;;;;;0.00;0.00;;;17.20;99.90;;;;;;5054706;28;20487;-74
2022/07/10 12:45:32;;;;;;;0.20;0.13;;;17.90;99.90;;;;;;5054907;28;20053;-74
2022/07/10 12:47:58;;;;;;;0.00;0.00;;;18.40;99.90;;;;;;5054346;28;20551;-75
2022/07/10 12:50:25;;;;;;;0.00;0.00;;;18.80;99.90;;;;;;5054382;28;20051;-74
2022/07/10 12:53:11;;;;;;;0.90;0.45;;;18.90;99.90;;;;;;5054374;28;20479;-74
2022/07/10 12:55:38;;;;;;;0.00;0.00;;;18.60;99.90;;;;;;5054637;28;20045;-74
2022/07/10 12:58:09;;;;;;;0.10;0.10;;;18.20;99.90;;;;;;5054219;28;20095;-74
2022/07/10 13:00:46;;;;;;;0.43;0.38;;;18.00;99.90;;;;;;5054041;28;20088;-74